Westport, Illinois
Current Conditions -  °F | °C
As of 11:53 AM on Friday 24 Oct 2014 (Local Time) from KLWV Reporting Station
Clear Clear  
Wind Chill: 64°   Ceiling: Unl
Heat Index: 64°   Visibility: 10mi
Dew Point: 50°   Wind: 3mph
Humidity: 60%   Direction: NA
Pressure: 30.11"   Gusts: NA
Location:  38.7501°N, 87.6141°W
Report Text: KLWV 241653Z AUTO VRB03KT 10SM CLR 18/10 A3011 RMK AO2 SLP197 T01780100
Loading
Personal Weather Stations






























Interactive Weather Map
Tropical Storm Tracking
New forecast layout! Learn more

10-Day Weather Forecast

Advertisements
Track Severe Weather on mobile